createdAt,value
2023-07-03T00:02:24.884Z,99.90
2023-07-03T00:06:46.868Z,99.90
2023-07-03T00:11:08.825Z,99.90
2023-07-03T00:15:31.109Z,99.90
2023-07-03T00:19:53.161Z,99.90
2023-07-03T00:24:15.300Z,99.90
2023-07-03T00:28:37.148Z,99.90
2023-07-03T00:33:00.196Z,99.90
2023-07-03T00:37:22.596Z,99.90
2023-07-03T00:41:44.973Z,99.90
2023-07-03T00:46:09.746Z,99.90
2023-07-03T00:50:33.406Z,99.90
2023-07-03T00:54:55.980Z,99.90
2023-07-03T00:59:18.794Z,99.90
2023-07-03T01:03:49.076Z,99.90
2023-07-03T01:08:13.114Z,99.90
2023-07-03T01:12:39.586Z,99.90
2023-07-03T01:17:02.504Z,99.90
2023-07-03T01:21:33.868Z,99.90
2023-07-03T01:25:57.888Z,99.90
2023-07-03T01:30:22.133Z,99.90
2023-07-03T01:34:46.954Z,99.90
2023-07-03T01:39:09.510Z,99.90
2023-07-03T01:43:31.929Z,99.90
2023-07-03T01:47:53.907Z,99.90
2023-07-03T01:52:33.151Z,99.90
2023-07-03T01:56:58.574Z,99.90
2023-07-03T02:01:43.062Z,99.90
2023-07-03T02:06:17.039Z,99.90
2023-07-03T02:10:39.808Z,99.90
2023-07-03T02:15:04.679Z,99.90
2023-07-03T02:19:29.604Z,99.90
2023-07-03T02:23:51.497Z,99.90
2023-07-03T02:28:14.175Z,99.90
2023-07-03T02:32:38.172Z,99.90
2023-07-03T02:37:00.516Z,99.90
2023-07-03T02:41:24.205Z,99.90
2023-07-03T02:45:46.301Z,99.90
2023-07-03T02:50:09.322Z,99.90
2023-07-03T02:54:33.990Z,99.90
2023-07-03T02:58:57.090Z,99.90
2023-07-03T03:03:24.881Z,99.90
2023-07-03T03:07:46.996Z,99.90
2023-07-03T03:12:10.771Z,99.90
2023-07-03T03:16:32.565Z,99.90
2023-07-03T03:20:54.712Z,99.90
2023-07-03T03:25:16.891Z,99.90
2023-07-03T03:29:42.148Z,99.90
2023-07-03T03:34:04.656Z,99.90
2023-07-03T03:38:26.730Z,99.90
2023-07-03T03:42:48.898Z,99.90
2023-07-03T03:47:12.206Z,99.90
2023-07-03T03:51:34.510Z,99.90
2023-07-03T03:55:57.432Z,99.90
2023-07-03T04:00:21.438Z,99.90
2023-07-03T04:04:43.729Z,99.90
2023-07-03T04:09:06.509Z,99.90
2023-07-03T04:13:28.424Z,99.90
2023-07-03T04:17:50.698Z,99.90
2023-07-03T04:22:12.450Z,99.90
2023-07-03T04:26:34.545Z,99.90
2023-07-03T04:30:56.560Z,99.90
2023-07-03T04:35:18.797Z,99.90
2023-07-03T04:39:40.501Z,99.90
2023-07-03T04:44:02.417Z,99.90
2023-07-03T04:48:24.273Z,99.90
2023-07-03T04:52:47.694Z,99.90
2023-07-03T04:57:09.511Z,99.90
2023-07-03T05:01:31.769Z,99.90
2023-07-03T05:05:53.723Z,99.90
2023-07-03T05:10:18.571Z,99.90
2023-07-03T05:14:40.544Z,99.90
2023-07-03T05:19:02.477Z,99.90
2023-07-03T05:23:24.463Z,99.90
2023-07-03T05:27:48.119Z,99.90
2023-07-03T05:32:10.179Z,99.90
2023-07-03T05:36:32.333Z,99.90
2023-07-03T05:40:55.829Z,99.90
2023-07-03T05:45:17.634Z,99.90
2023-07-03T05:49:40.029Z,99.90
2023-07-03T05:54:02.157Z,94.30
2023-07-03T05:58:25.104Z,77.50
2023-07-03T06:02:49.157Z,63.20
2023-07-03T06:07:11.721Z,56.20
2023-07-03T06:11:33.206Z,58.20
2023-07-03T06:15:55.447Z,63.60
2023-07-03T06:20:17.429Z,67.10
2023-07-03T06:24:39.469Z,67.60
2023-07-03T06:29:05.097Z,65.60
2023-07-03T06:33:26.730Z,69.40
2023-07-03T06:37:48.838Z,72.00
2023-07-03T06:42:11.334Z,74.60
2023-07-03T06:46:37.920Z,75.10
2023-07-03T06:51:08.824Z,74.20
2023-07-03T06:55:30.750Z,75.00
2023-07-03T06:59:52.891Z,71.80
2023-07-03T07:04:16.309Z,68.50
2023-07-03T07:08:38.341Z,65.40
2023-07-03T07:13:00.350Z,58.70
2023-07-03T07:17:23.769Z,56.20
2023-07-03T07:21:47.756Z,55.10
2023-07-03T07:26:09.953Z,55.40
2023-07-03T07:30:31.888Z,54.80
2023-07-03T07:34:53.612Z,51.70
2023-07-03T07:39:15.872Z,49.30
2023-07-03T07:43:38.013Z,47.70
2023-07-03T07:48:00.875Z,47.20
2023-07-03T07:52:25.112Z,45.40
2023-07-03T07:56:46.770Z,44.40
2023-07-03T08:01:11.928Z,43.70
2023-07-03T08:05:34.023Z,42.60
2023-07-03T08:09:55.850Z,42.40
2023-07-03T08:14:17.782Z,44.70
2023-07-03T08:18:39.803Z,48.00
2023-07-03T08:23:01.722Z,45.70
2023-07-03T08:27:23.855Z,46.70
2023-07-03T08:31:46.101Z,45.60
2023-07-03T08:40:33.038Z,50.80
2023-07-03T08:44:58.024Z,48.00
2023-07-03T08:49:24.465Z,46.50
2023-07-03T08:53:53.639Z,49.00
2023-07-03T08:58:15.579Z,48.00
2023-07-03T09:02:41.002Z,48.20
2023-07-03T09:07:19.962Z,50.00
2023-07-03T09:11:49.721Z,47.50
2023-07-03T09:16:23.573Z,45.90
2023-07-03T09:20:45.748Z,51.50
2023-07-03T09:25:19.112Z,51.10
2023-07-03T09:29:42.485Z,50.30
2023-07-03T09:34:04.681Z,52.50
2023-07-03T09:38:27.642Z,52.20
2023-07-03T09:42:50.132Z,48.90
2023-07-03T09:47:26.028Z,44.90
2023-07-03T09:51:53.047Z,46.90
2023-07-03T09:56:21.982Z,48.40
2023-07-03T10:00:50.582Z,47.60
2023-07-03T10:14:23.046Z,46.10
2023-07-03T10:18:49.892Z,45.00
2023-07-03T10:23:19.295Z,46.70
2023-07-03T10:27:42.232Z,47.00
2023-07-03T10:32:14.568Z,45.20
2023-07-03T10:36:37.496Z,48.30
2023-07-03T10:41:08.401Z,51.80
2023-07-03T10:45:36.431Z,51.80
2023-07-03T10:49:58.449Z,52.00
2023-07-03T10:54:33.241Z,52.80
2023-07-03T10:59:16.992Z,50.10
2023-07-03T11:04:05.946Z,53.00
2023-07-03T11:08:51.042Z,54.80
2023-07-03T11:13:42.808Z,52.80
2023-07-03T11:23:12.604Z,51.70
2023-07-03T11:32:10.921Z,52.90
2023-07-03T11:45:59.360Z,52.60
2023-07-03T11:50:35.567Z,55.40
2023-07-03T11:55:35.796Z,57.00
2023-07-03T12:00:20.309Z,56.00
2023-07-03T12:04:49.815Z,55.50
2023-07-03T12:09:32.802Z,55.90
2023-07-03T12:13:56.337Z,55.40
2023-07-03T12:18:18.462Z,55.60
2023-07-03T12:22:50.276Z,55.30
2023-07-03T12:27:12.463Z,56.20
2023-07-03T12:31:34.487Z,56.70
2023-07-03T12:35:56.975Z,55.20
2023-07-03T12:40:21.340Z,54.30
2023-07-03T12:44:43.333Z,54.80
2023-07-03T12:49:18.602Z,57.30
2023-07-03T12:53:43.619Z,56.60
2023-07-03T12:58:07.045Z,57.30
2023-07-03T13:02:31.156Z,57.40
2023-07-03T13:06:53.739Z,57.20
2023-07-03T13:11:15.718Z,56.20
2023-07-03T13:15:42.023Z,56.40
2023-07-03T13:20:21.728Z,56.40
2023-07-03T13:24:50.325Z,55.60
2023-07-03T13:29:12.417Z,57.10
2023-07-03T13:33:37.728Z,57.20
2023-07-03T13:38:20.514Z,57.50
2023-07-03T13:42:42.706Z,57.80
2023-07-03T13:47:05.067Z,57.50
2023-07-03T13:51:26.770Z,57.20
2023-07-03T13:55:50.054Z,57.30
2023-07-03T14:00:12.863Z,57.30
2023-07-03T14:04:34.740Z,56.90
2023-07-03T14:08:58.340Z,56.90
2023-07-03T14:13:20.240Z,57.40
2023-07-03T14:17:42.177Z,57.20
2023-07-03T14:22:04.088Z,55.90
2023-07-03T14:26:26.175Z,56.00
2023-07-03T14:30:48.784Z,56.90
2023-07-03T14:35:11.491Z,56.40
2023-07-03T14:39:33.419Z,56.80
2023-07-03T14:43:55.497Z,57.40
2023-07-03T14:48:17.358Z,57.00
2023-07-03T14:52:45.341Z,57.50
2023-07-03T14:57:07.494Z,57.90
2023-07-03T15:01:30.301Z,55.10
2023-07-03T15:05:52.923Z,57.20
2023-07-03T15:10:16.549Z,57.20
2023-07-03T15:14:40.231Z,55.80
2023-07-03T15:19:06.885Z,55.50
2023-07-03T15:23:28.895Z,55.40
2023-07-03T15:27:50.784Z,55.10
2023-07-03T15:32:12.765Z,54.20
2023-07-03T15:36:35.098Z,54.70
2023-07-03T15:40:59.474Z,55.20
2023-07-03T15:45:23.477Z,55.60
2023-07-03T15:49:47.371Z,55.00
2023-07-03T15:54:09.436Z,55.00
2023-07-03T15:58:34.663Z,55.30
2023-07-03T16:02:56.283Z,55.10
2023-07-03T16:07:18.334Z,54.60
2023-07-03T16:11:40.291Z,56.00
2023-07-03T16:16:07.057Z,55.20
2023-07-03T16:20:31.450Z,55.40
2023-07-03T16:24:53.504Z,55.30
2023-07-03T16:29:17.416Z,56.30
2023-07-03T16:33:45.444Z,55.60
2023-07-03T16:38:07.363Z,56.40
2023-07-03T16:42:29.278Z,56.40
2023-07-03T16:46:51.404Z,56.10
2023-07-03T16:51:13.785Z,55.70
2023-07-03T16:55:35.550Z,56.30
2023-07-03T16:59:59.488Z,56.10
2023-07-03T17:04:21.681Z,56.00
2023-07-03T17:08:43.431Z,57.00
2023-07-03T17:13:07.235Z,57.10
2023-07-03T17:17:29.149Z,57.20
2023-07-03T17:21:51.139Z,58.00
2023-07-03T17:26:13.859Z,57.70
2023-07-03T17:30:36.571Z,57.80
2023-07-03T17:34:58.647Z,57.80
2023-07-03T17:39:20.588Z,58.60
2023-07-03T17:43:42.551Z,59.50
2023-07-03T17:48:05.186Z,59.80
2023-07-03T17:52:27.472Z,60.30
2023-07-03T17:56:49.419Z,61.00
2023-07-03T18:01:12.888Z,61.00
2023-07-03T18:05:36.287Z,62.30
2023-07-03T18:09:58.248Z,63.00
2023-07-03T18:14:20.331Z,63.80
2023-07-03T18:18:42.070Z,64.70
2023-07-03T18:23:04.240Z,65.20
2023-07-03T18:27:33.905Z,65.30
2023-07-03T18:31:55.850Z,66.00
2023-07-03T18:36:17.623Z,66.90
2023-07-03T18:40:39.765Z,68.00
2023-07-03T18:45:01.900Z,68.70
2023-07-03T18:49:23.864Z,68.50
2023-07-03T18:53:46.324Z,69.80
2023-07-03T18:58:08.603Z,70.00
2023-07-03T19:02:31.036Z,71.70
2023-07-03T19:06:54.114Z,72.50
2023-07-03T19:11:16.339Z,72.70
2023-07-03T19:15:38.224Z,74.30
2023-07-03T19:20:00.689Z,74.70
2023-07-03T19:24:22.713Z,76.00
2023-07-03T19:28:55.356Z,77.20
2023-07-03T19:33:18.371Z,78.20
2023-07-03T19:37:41.829Z,79.20
2023-07-03T19:42:07.272Z,80.60
2023-07-03T19:46:29.611Z,81.90
2023-07-03T19:50:51.865Z,82.80
2023-07-03T19:55:13.794Z,84.10
2023-07-03T19:59:36.360Z,85.10
2023-07-03T20:04:00.990Z,87.50
2023-07-03T20:08:24.978Z,88.70
2023-07-03T20:12:51.963Z,90.10
2023-07-03T20:17:13.793Z,91.00
2023-07-03T20:21:35.816Z,91.60
2023-07-03T20:25:59.049Z,92.60
2023-07-03T20:30:21.112Z,93.80
2023-07-03T20:34:43.261Z,94.60
2023-07-03T20:39:06.084Z,95.70
2023-07-03T20:43:28.979Z,97.00
2023-07-03T20:47:51.829Z,97.80
2023-07-03T20:52:15.717Z,98.70
2023-07-03T20:56:40.151Z,99.60
2023-07-03T21:01:26.868Z,99.90
2023-07-03T21:05:48.663Z,99.90
2023-07-03T21:10:11.607Z,99.90
2023-07-03T21:14:33.460Z,99.90
2023-07-03T21:18:55.610Z,99.90
2023-07-03T21:23:17.517Z,99.90
2023-07-03T21:27:39.433Z,99.90
2023-07-03T21:32:01.519Z,99.90
2023-07-03T21:36:26.258Z,99.90
2023-07-03T21:40:55.975Z,99.90
2023-07-03T21:45:18.169Z,99.90
2023-07-03T21:49:40.169Z,99.90
2023-07-03T21:54:02.053Z,99.90
2023-07-03T21:58:23.912Z,99.90
2023-07-03T22:02:45.837Z,99.90
2023-07-03T22:07:07.817Z,99.90
2023-07-03T22:11:30.572Z,99.90
2023-07-03T22:15:52.546Z,99.90
2023-07-03T22:20:14.705Z,99.90
2023-07-03T22:24:36.707Z,99.90
2023-07-03T22:28:58.901Z,99.90
2023-07-03T22:33:21.107Z,99.90
2023-07-03T22:37:43.108Z,99.90
2023-07-03T22:42:05.714Z,99.90
2023-07-03T22:46:29.114Z,99.90
2023-07-03T22:50:55.188Z,99.90
2023-07-03T22:55:18.763Z,99.90
2023-07-03T22:59:40.956Z,99.90
2023-07-03T23:04:11.056Z,99.90
2023-07-03T23:08:38.474Z,99.90
2023-07-03T23:13:00.101Z,99.90
2023-07-03T23:17:30.955Z,99.90
2023-07-03T23:21:52.793Z,99.90
2023-07-03T23:26:18.749Z,99.90
2023-07-03T23:30:41.095Z,99.90
2023-07-03T23:35:02.700Z,99.90
2023-07-03T23:39:24.654Z,99.90
2023-07-03T23:43:47.624Z,99.90
2023-07-03T23:48:12.093Z,99.90
2023-07-03T23:52:33.820Z,99.90
2023-07-03T23:56:55.676Z,99.90
